Strona główna
METAR-TAF:

METAR-TAF

Lotnisko :

Port lotniczy Madryt-Barajas

Madryt, Hiszpania

Szerokość geograficzna: 40-27N, Długość geograficzna: 003-33W, wysokość: 609 m

Aktualna obserwacja pogody

Raport powstał 30 minut temu, godzina 21:00 UTC
Wiatr 1 kt z kierunków zmiennych
Temperatura 6°C
Wilgotność 100%
Ciśnienie 1031 hPa
Widzialność: 8000 m

METAR: LEMD 092100Z VRB01KT 8000 NSC 06/06 Q1031 NOSIG

czas: 22:30 (21:30 UTC)

Prognoza

Raport powstał 4 godziny i 30 minut temu, godzina 17:00 UTC
Prognoza ważna od 09 godzina 18 UTC do 10 godzina 24 UTC
Wiatr 3 kt z kierunków zmiennych
Widzialność 10 km lub więcej
Brak chmur poniżej 1500 m i brak chmur cumulonimbus

TAF: LEMD 091700Z 0918/1024 VRB03KT CAVOK TX16/1015Z TN02/1007Z

Obserwacja i prognoza pogody dla ponad 4000 lotnisk (raport METAR i TAF).

Dostępne stacje oznaczono żółtymi i czerwonymi punktami na mapie.

Najedź kursorem aby zobaczyć nazwę stacji.

Kliknij aby zobaczyć obserwacje i prognozy pogody.

Aby zmienić mapę: kliknij na zielony przycisk z czarnym krzyżykiem, aby powiększyć; na zielony przycisk z myślnikiem, aby pomniejszyć; na zielone strzałki, aby przejść do map sąsiednich.


METAR-TAF: